createdAt,value
2017-07-31T00:02:22.230Z,98062.69
2017-07-31T00:04:50.554Z,98067.91
2017-07-31T00:07:18.879Z,98070.27
2017-07-31T00:09:47.232Z,98063.43
2017-07-31T00:12:15.574Z,98076.44
2017-07-31T00:14:44.181Z,98071.59
2017-07-31T00:17:12.500Z,98071.92
2017-07-31T00:19:40.816Z,98073.57
2017-07-31T00:22:09.168Z,98074.00
2017-07-31T00:24:37.507Z,98076.22
2017-07-31T00:27:06.128Z,98062.69
2017-07-31T00:29:34.457Z,98065.56
2017-07-31T00:32:02.857Z,98071.77
2017-07-31T00:34:31.214Z,98077.08
2017-07-31T00:36:59.555Z,98086.13
2017-07-31T00:39:28.222Z,98078.80
2017-07-31T00:41:56.559Z,98067.98
2017-07-31T00:44:24.916Z,98064.75
2017-07-31T00:46:53.282Z,98063.75
2017-07-31T00:49:21.619Z,98057.06
2017-07-31T00:51:50.755Z,98062.98
2017-07-31T00:54:19.522Z,98071.59
2017-07-31T00:56:48.590Z,98063.09
2017-07-31T00:59:17.526Z,98068.57
2017-07-31T01:01:46.898Z,98074.90
2017-07-31T01:04:15.516Z,98072.47
2017-07-31T01:06:44.296Z,98077.59
2017-07-31T01:09:13.384Z,98069.31
2017-07-31T01:11:41.749Z,98067.59
2017-07-31T01:14:10.090Z,98079.31
2017-07-31T01:16:38.426Z,98096.12
2017-07-31T01:19:07.530Z,98090.42
2017-07-31T01:21:35.893Z,98094.47
2017-07-31T01:24:04.263Z,98108.12
2017-07-31T01:26:32.583Z,98095.32
2017-07-31T01:29:00.919Z,98092.62
2017-07-31T01:31:29.227Z,98083.67
2017-07-31T01:33:57.743Z,98086.52
2017-07-31T01:36:26.067Z,98081.00
2017-07-31T01:38:54.404Z,98079.92
2017-07-31T01:41:23.160Z,98081.58
2017-07-31T01:43:51.978Z,98090.89
2017-07-31T01:46:20.298Z,98086.91
2017-07-31T01:48:48.638Z,98076.25
2017-07-31T01:51:17.026Z,98079.36
2017-07-31T01:53:45.395Z,98076.25
2017-07-31T01:56:13.758Z,98076.88
2017-07-31T01:58:42.126Z,98081.97
2017-07-31T02:01:12.623Z,98079.45
2017-07-31T02:03:41.063Z,98075.03
2017-07-31T02:06:09.417Z,98079.95
2017-07-31T02:08:37.763Z,98077.63
2017-07-31T02:11:06.099Z,98080.42
2017-07-31T02:13:34.444Z,98083.21
2017-07-31T02:16:02.841Z,98077.12
2017-07-31T02:18:31.189Z,98067.22
2017-07-31T02:20:59.526Z,98060.59
2017-07-31T02:23:28.143Z,98053.16
2017-07-31T02:25:56.486Z,98056.44
2017-07-31T02:28:24.821Z,98049.64
2017-07-31T02:30:53.180Z,98048.80
2017-07-31T02:33:21.509Z,98060.34
2017-07-31T02:35:49.875Z,98059.61
2017-07-31T02:38:18.209Z,98052.40
2017-07-31T02:40:46.814Z,98054.31
2017-07-31T02:43:15.137Z,98057.33
2017-07-31T02:45:43.469Z,98064.97
2017-07-31T02:48:11.808Z,98070.24
2017-07-31T02:50:40.126Z,98071.38
2017-07-31T02:53:08.467Z,98071.05
2017-07-31T02:55:36.786Z,98072.02
2017-07-31T02:58:05.201Z,98071.03
2017-07-31T03:00:33.649Z,98074.72
2017-07-31T03:03:01.972Z,98075.59
2017-07-31T03:05:30.322Z,98073.01
2017-07-31T03:07:58.658Z,98088.63
2017-07-31T03:10:26.985Z,98089.73
2017-07-31T03:12:55.316Z,98080.87
2017-07-31T03:15:23.939Z,98082.83
2017-07-31T03:17:52.280Z,98095.19
2017-07-31T03:20:20.613Z,98090.25
2017-07-31T03:22:48.957Z,98088.40
2017-07-31T03:25:17.287Z,98082.08
2017-07-31T03:27:45.625Z,98077.89
2017-07-31T03:30:13.961Z,98085.23
2017-07-31T03:32:42.591Z,98089.89
2017-07-31T03:35:10.912Z,98093.85
2017-07-31T03:37:39.237Z,98096.66
2017-07-31T03:40:07.595Z,98101.78
2017-07-31T03:42:35.902Z,98105.27
2017-07-31T03:45:04.289Z,98105.92
2017-07-31T03:47:32.630Z,98114.45
2017-07-31T03:50:00.957Z,98119.19
2017-07-31T03:52:29.305Z,98120.76
2017-07-31T03:54:57.656Z,98115.69
2017-07-31T03:57:26.029Z,98120.16
2017-07-31T03:59:54.351Z,98110.81
2017-07-31T04:02:22.698Z,98112.80
2017-07-31T04:04:51.019Z,98118.55
2017-07-31T04:07:19.361Z,98118.95
2017-07-31T04:09:47.694Z,98103.03
2017-07-31T04:12:16.026Z,98102.81
2017-07-31T04:14:44.362Z,98103.60
2017-07-31T04:17:12.721Z,98107.41
2017-07-31T04:19:41.069Z,98111.94
2017-07-31T04:22:09.410Z,98109.48
2017-07-31T04:24:37.754Z,98105.39
2017-07-31T04:27:06.068Z,98108.03
2017-07-31T04:29:34.404Z,98114.56
2017-07-31T04:32:02.749Z,98115.21
2017-07-31T04:34:31.189Z,98120.70
2017-07-31T04:36:59.512Z,98120.47
2017-07-31T04:39:27.850Z,98124.43
2017-07-31T04:41:56.200Z,98126.12
2017-07-31T04:44:24.537Z,98142.02
2017-07-31T04:46:52.889Z,98142.87
2017-07-31T04:49:21.219Z,98152.98
2017-07-31T04:51:49.580Z,98150.55
2017-07-31T04:54:17.898Z,98154.47
2017-07-31T04:56:46.503Z,98153.50
2017-07-31T04:59:14.820Z,98155.27
2017-07-31T05:01:43.137Z,98153.89
2017-07-31T05:04:11.477Z,98153.34
2017-07-31T05:06:39.990Z,98147.17
2017-07-31T05:09:08.344Z,98149.81
2017-07-31T05:11:36.686Z,98150.79
2017-07-31T05:14:05.019Z,98151.68
2017-07-31T05:16:33.359Z,98153.73
2017-07-31T05:19:01.727Z,98146.85
2017-07-31T05:21:31.047Z,98147.55
2017-07-31T05:23:59.390Z,98150.58
2017-07-31T05:26:27.717Z,98144.78
2017-07-31T05:28:56.064Z,98141.48
2017-07-31T05:31:25.106Z,98128.09
2017-07-31T05:33:53.424Z,98134.84
2017-07-31T05:36:21.758Z,98141.27
2017-07-31T05:38:50.094Z,98141.45
2017-07-31T05:41:19.213Z,98144.61
2017-07-31T05:43:47.530Z,98156.27
2017-07-31T05:46:16.252Z,98155.10
2017-07-31T05:48:44.594Z,98152.25
2017-07-31T05:51:12.965Z,98154.14
2017-07-31T05:53:41.406Z,98158.48
2017-07-31T05:56:09.748Z,98166.10
2017-07-31T05:58:38.091Z,98160.55
2017-07-31T06:01:06.411Z,98155.15
2017-07-31T06:03:34.748Z,98162.20
2017-07-31T06:06:03.080Z,98163.98
2017-07-31T06:08:31.451Z,98159.09
2017-07-31T06:10:59.810Z,98163.66
2017-07-31T06:13:28.138Z,98163.92
2017-07-31T06:15:56.491Z,98162.53
2017-07-31T06:18:24.823Z,98156.76
2017-07-31T06:20:53.180Z,98160.56
2017-07-31T06:23:22.293Z,98161.04
2017-07-31T06:25:50.661Z,98171.86
2017-07-31T06:28:19.003Z,98170.61
2017-07-31T06:30:47.353Z,98171.28
2017-07-31T06:33:15.677Z,98166.94
2017-07-31T06:35:44.411Z,98170.31
2017-07-31T06:38:12.761Z,98169.28
2017-07-31T06:40:41.887Z,98166.14
2017-07-31T06:43:10.232Z,98166.66
2017-07-31T06:45:38.546Z,98163.22
2017-07-31T06:48:06.927Z,98161.99
2017-07-31T06:50:35.253Z,98168.12
2017-07-31T06:53:03.621Z,98175.00
2017-07-31T06:55:31.960Z,98173.46
2017-07-31T06:58:00.316Z,98171.55
2017-07-31T07:00:28.649Z,98172.28
2017-07-31T07:02:56.995Z,98174.45
2017-07-31T07:05:25.329Z,98168.62
2017-07-31T07:07:53.683Z,98177.23
2017-07-31T07:10:22.016Z,98194.40
2017-07-31T07:12:50.356Z,98190.23
2017-07-31T07:15:18.698Z,98192.78
2017-07-31T07:17:47.022Z,98192.72
2017-07-31T07:20:15.369Z,98187.27
2017-07-31T07:22:43.734Z,98189.86
2017-07-31T07:25:12.067Z,98183.09
2017-07-31T07:27:40.396Z,98184.58
2017-07-31T07:30:09.153Z,98183.44
2017-07-31T07:32:37.493Z,98176.05
2017-07-31T07:35:05.884Z,98178.75
2017-07-31T07:37:34.220Z,98180.66
2017-07-31T07:40:02.538Z,98184.98
2017-07-31T07:42:30.888Z,98185.86
2017-07-31T07:44:59.208Z,98190.31
2017-07-31T07:47:27.556Z,98177.92
2017-07-31T07:49:55.867Z,98184.00
2017-07-31T07:52:24.198Z,98185.53
2017-07-31T07:54:52.541Z,98185.78
2017-07-31T07:57:20.955Z,98190.85
2017-07-31T07:59:49.301Z,98190.12
2017-07-31T08:02:18.438Z,98190.55
2017-07-31T08:04:46.805Z,98195.55
2017-07-31T08:07:15.129Z,98194.67
2017-07-31T08:09:43.497Z,98193.47
2017-07-31T08:12:11.832Z,98191.27
2017-07-31T08:14:40.193Z,98194.89
2017-07-31T08:17:09.285Z,98193.86
2017-07-31T08:19:37.969Z,98191.75
2017-07-31T08:22:06.292Z,98191.24
2017-07-31T08:24:34.622Z,98196.09
2017-07-31T08:27:03.721Z,98191.91
2017-07-31T08:29:32.052Z,98187.16
2017-07-31T08:32:00.415Z,98186.81
2017-07-31T08:34:28.777Z,98178.30
2017-07-31T08:36:57.114Z,98178.19
2017-07-31T08:39:25.479Z,98174.63
2017-07-31T08:41:53.814Z,98183.16
2017-07-31T08:44:22.185Z,98183.88
2017-07-31T08:46:50.543Z,98178.28
2017-07-31T08:49:18.907Z,98176.81
2017-07-31T08:51:47.290Z,98172.95
2017-07-31T08:54:15.616Z,98176.70
2017-07-31T08:56:43.960Z,98186.15
2017-07-31T08:59:12.284Z,98188.69
2017-07-31T09:01:40.645Z,98187.97
2017-07-31T09:04:09.736Z,98181.70
2017-07-31T09:06:38.079Z,98179.22
2017-07-31T09:09:06.433Z,98183.91
2017-07-31T09:11:34.769Z,98186.72
2017-07-31T09:14:03.877Z,98196.99
2017-07-31T09:16:32.212Z,98188.34
2017-07-31T09:19:00.571Z,98195.03
2017-07-31T09:21:28.908Z,98195.05
2017-07-31T09:23:58.040Z,98189.89
2017-07-31T09:26:26.696Z,98196.56
2017-07-31T09:28:55.033Z,98199.68
2017-07-31T09:31:23.375Z,98205.44
2017-07-31T09:33:51.734Z,98207.16
2017-07-31T09:36:20.851Z,98201.83
2017-07-31T09:38:49.179Z,98198.50
2017-07-31T09:41:17.904Z,98211.44
2017-07-31T09:43:46.218Z,98212.77
2017-07-31T09:46:14.558Z,98212.11
2017-07-31T09:48:43.668Z,98208.63
2017-07-31T09:51:12.011Z,98213.56
2017-07-31T09:53:40.371Z,98215.95
2017-07-31T09:56:08.695Z,98207.55
2017-07-31T09:58:38.098Z,98203.55
2017-07-31T10:01:06.423Z,98198.83
2017-07-31T10:03:34.758Z,98202.44
2017-07-31T10:06:03.876Z,98208.16
2017-07-31T10:08:32.196Z,98200.81
2017-07-31T10:11:00.551Z,98193.67
2017-07-31T10:13:28.895Z,98192.08
2017-07-31T10:15:57.289Z,98181.50
2017-07-31T10:18:25.608Z,98187.11
2017-07-31T10:20:53.963Z,98181.91
2017-07-31T10:23:22.316Z,98178.96
2017-07-31T10:25:50.692Z,98181.08
2017-07-31T10:28:19.007Z,98181.73
2017-07-31T10:30:47.658Z,98180.14
2017-07-31T10:33:15.985Z,98176.77
2017-07-31T10:35:44.314Z,98173.44
2017-07-31T10:38:13.435Z,98171.55
2017-07-31T10:40:41.766Z,98186.27
2017-07-31T10:43:10.104Z,98182.76
2017-07-31T10:45:38.448Z,98190.22
2017-07-31T10:48:07.567Z,98186.03
2017-07-31T10:50:35.921Z,98172.59
2017-07-31T10:53:04.272Z,98189.38
2017-07-31T10:55:32.631Z,98188.13
2017-07-31T10:58:00.987Z,98198.39
2017-07-31T11:00:29.337Z,98206.39
2017-07-31T11:02:58.442Z,98211.03
2017-07-31T11:05:27.134Z,98214.49
2017-07-31T11:07:55.468Z,98215.85
2017-07-31T11:10:23.800Z,98211.99
2017-07-31T11:12:52.152Z,98214.16
2017-07-31T11:15:21.252Z,98215.59
2017-07-31T11:17:49.614Z,98222.77
2017-07-31T11:20:17.957Z,98227.01
2017-07-31T11:22:46.704Z,98227.03
2017-07-31T11:25:15.133Z,98214.39
2017-07-31T11:27:43.475Z,98222.86
2017-07-31T11:30:11.824Z,98233.01
2017-07-31T11:32:40.185Z,98216.13
2017-07-31T11:35:08.541Z,98210.05
2017-07-31T11:37:36.885Z,98225.51
2017-07-31T11:40:05.992Z,98225.80
2017-07-31T11:42:34.326Z,98217.73
2017-07-31T11:45:02.757Z,98217.55
2017-07-31T11:47:31.111Z,98219.50
2017-07-31T11:49:59.444Z,98219.50
2017-07-31T11:52:27.824Z,98212.77
2017-07-31T11:54:56.160Z,98214.78
2017-07-31T11:57:25.558Z,98197.03
2017-07-31T11:59:54.805Z,98190.80
2017-07-31T12:02:23.124Z,98189.47
2017-07-31T12:04:51.460Z,98190.97
2017-07-31T12:07:19.807Z,98191.67
2017-07-31T12:09:48.156Z,98189.56
2017-07-31T12:12:16.486Z,98182.33
2017-07-31T12:14:44.911Z,98186.70
2017-07-31T12:17:13.257Z,98174.52
2017-07-31T12:19:41.904Z,98170.69
2017-07-31T12:22:10.230Z,98163.95
2017-07-31T12:24:38.579Z,98174.95
2017-07-31T12:27:06.947Z,98167.13
2017-07-31T12:29:36.050Z,98165.74
2017-07-31T12:32:04.414Z,98172.50
2017-07-31T12:34:32.816Z,98174.55
2017-07-31T12:37:01.174Z,98167.05
2017-07-31T12:39:29.513Z,98168.08
2017-07-31T12:41:57.883Z,98166.19
2017-07-31T12:44:26.218Z,98163.23
2017-07-31T12:46:55.343Z,98167.45
2017-07-31T12:49:23.679Z,98158.86
2017-07-31T12:51:52.012Z,98148.48
2017-07-31T12:54:20.345Z,98144.50
2017-07-31T12:56:49.443Z,98138.28
2017-07-31T12:59:17.814Z,98142.22
2017-07-31T13:01:46.154Z,98145.17
2017-07-31T13:04:14.901Z,98147.55
2017-07-31T13:06:43.236Z,98142.36
2017-07-31T13:09:11.567Z,98139.38
2017-07-31T13:11:39.917Z,98134.89
2017-07-31T13:14:09.085Z,98129.48
2017-07-31T13:16:37.443Z,98133.41
2017-07-31T13:19:05.786Z,98128.45
2017-07-31T13:21:34.471Z,98117.72
2017-07-31T13:24:02.795Z,98114.54
2017-07-31T13:26:31.138Z,98111.80
2017-07-31T13:29:00.251Z,98111.06
2017-07-31T13:31:28.566Z,98119.11
2017-07-31T13:33:56.912Z,98114.86
2017-07-31T13:36:25.269Z,98115.10
2017-07-31T13:38:54.421Z,98124.95
2017-07-31T13:41:22.747Z,98136.00
2017-07-31T13:43:51.117Z,98146.64
2017-07-31T13:46:19.570Z,98146.43
2017-07-31T13:48:47.905Z,98143.64
2017-07-31T13:51:16.264Z,98154.13
2017-07-31T13:53:44.591Z,98156.87
2017-07-31T13:56:12.928Z,98158.03
2017-07-31T13:58:42.053Z,98165.31
2017-07-31T14:01:10.421Z,98159.52
2017-07-31T14:03:38.750Z,98140.84
2017-07-31T14:06:07.405Z,98133.36
2017-07-31T14:08:35.747Z,98132.69
2017-07-31T14:11:04.847Z,98132.75
2017-07-31T14:13:33.207Z,98127.56
2017-07-31T14:16:01.554Z,98118.92
2017-07-31T14:18:29.903Z,98121.78
2017-07-31T14:20:58.219Z,98129.45
2017-07-31T14:23:26.963Z,98124.48
2017-07-31T14:25:55.297Z,98120.00
2017-07-31T14:28:24.031Z,98129.64
2017-07-31T14:30:52.381Z,98124.70
2017-07-31T14:33:20.730Z,98128.55
2017-07-31T14:35:49.787Z,98119.43
2017-07-31T14:38:18.121Z,98123.84
2017-07-31T14:40:46.961Z,98119.41
2017-07-31T14:43:15.283Z,98123.14
2017-07-31T14:45:43.616Z,98117.89
2017-07-31T14:48:11.959Z,98106.57
2017-07-31T14:50:40.286Z,98092.71
2017-07-31T14:53:09.077Z,98098.72
2017-07-31T14:55:37.391Z,98097.55
2017-07-31T14:58:06.467Z,98108.45
2017-07-31T15:00:34.803Z,98114.24
2017-07-31T15:03:04.209Z,98108.63
2017-07-31T15:05:32.570Z,98099.91
2017-07-31T15:08:00.985Z,98103.70
2017-07-31T15:10:29.328Z,98096.09
2017-07-31T15:12:57.662Z,98091.63
2017-07-31T15:15:26.556Z,98087.23
2017-07-31T15:17:54.877Z,98092.11
2017-07-31T15:20:23.220Z,98088.30
2017-07-31T15:22:51.576Z,98087.72
2017-07-31T15:25:19.923Z,98074.28
2017-07-31T15:27:48.295Z,98071.17
2017-07-31T15:30:16.630Z,98080.25
2017-07-31T15:32:45.378Z,98069.27
2017-07-31T15:35:13.701Z,98069.86
2017-07-31T15:37:42.032Z,98062.83
2017-07-31T15:40:11.144Z,98058.72
2017-07-31T15:42:39.482Z,98056.69
2017-07-31T15:45:07.829Z,98061.02
2017-07-31T15:47:36.195Z,98053.55
2017-07-31T15:50:04.548Z,98052.99
2017-07-31T15:52:33.644Z,98048.08
2017-07-31T15:55:01.991Z,98037.19
2017-07-31T15:57:30.315Z,98031.73
2017-07-31T15:59:58.727Z,98036.38
2017-07-31T16:02:27.073Z,98036.75
2017-07-31T16:04:56.171Z,98038.34
2017-07-31T16:07:24.548Z,98045.47
2017-07-31T16:09:52.875Z,98048.72
2017-07-31T16:12:21.241Z,98059.70
2017-07-31T16:14:49.584Z,98058.44
2017-07-31T16:17:17.918Z,98047.45
2017-07-31T16:19:46.263Z,98043.13
2017-07-31T16:22:14.713Z,98053.50
2017-07-31T16:24:44.137Z,98055.17
2017-07-31T16:27:12.465Z,98055.40
2017-07-31T16:29:41.402Z,98040.75
2017-07-31T16:32:10.518Z,98043.61
2017-07-31T16:34:38.878Z,98032.68
2017-07-31T16:37:25.380Z,98032.34
2017-07-31T16:39:53.695Z,98040.16
2017-07-31T16:42:49.475Z,98037.80
2017-07-31T16:45:30.312Z,98041.69
2017-07-31T16:51:04.053Z,98046.35
2017-07-31T16:53:32.409Z,98047.14
2017-07-31T16:56:03.628Z,98044.94
2017-07-31T16:58:31.951Z,98029.13
2017-07-31T17:01:00.313Z,98024.96
2017-07-31T17:03:29.624Z,98027.76
2017-07-31T17:05:57.990Z,98026.63
2017-07-31T17:08:26.365Z,98032.64
2017-07-31T17:10:54.680Z,98044.28
2017-07-31T17:13:23.038Z,98044.70
2017-07-31T17:15:51.360Z,98050.85
2017-07-31T17:18:19.729Z,98057.83
2017-07-31T17:20:48.115Z,98051.70
2017-07-31T17:23:16.453Z,98045.19
2017-07-31T17:25:44.818Z,98051.76
2017-07-31T17:28:13.152Z,98048.66
2017-07-31T17:30:41.851Z,98043.85
2017-07-31T17:33:10.186Z,98051.47
2017-07-31T17:35:38.514Z,98048.16
2017-07-31T17:38:08.127Z,98048.54
2017-07-31T17:40:36.479Z,98047.79
2017-07-31T17:43:05.298Z,98042.52
2017-07-31T17:45:33.648Z,98043.28
2017-07-31T17:48:01.975Z,98031.84
2017-07-31T17:50:30.335Z,98035.88
2017-07-31T17:52:58.702Z,98028.59
2017-07-31T17:55:27.817Z,98034.09
2017-07-31T17:57:56.188Z,98043.73
2017-07-31T18:05:18.135Z,98054.57
2017-07-31T18:07:47.255Z,98054.39
2017-07-31T18:10:15.684Z,98043.80
2017-07-31T18:12:44.030Z,98041.81
2017-07-31T18:15:12.394Z,98052.36
2017-07-31T18:17:40.756Z,98060.81
2017-07-31T18:20:09.098Z,98086.94
2017-07-31T18:22:37.468Z,98086.63
2017-07-31T18:25:05.811Z,98031.59
2017-07-31T18:27:34.891Z,98035.88
2017-07-31T18:30:03.246Z,98056.97
2017-07-31T18:32:31.621Z,98053.38
2017-07-31T18:34:59.989Z,98068.02
2017-07-31T18:37:28.355Z,98078.93
2017-07-31T18:39:56.751Z,98075.98
2017-07-31T18:42:25.086Z,98074.58
2017-07-31T18:44:53.433Z,98073.69
2017-07-31T18:47:21.758Z,98061.05
2017-07-31T18:49:50.113Z,98045.13
2017-07-31T18:52:18.444Z,98020.63
2017-07-31T18:54:46.817Z,98031.61
2017-07-31T18:57:15.155Z,98049.27
2017-07-31T18:59:43.788Z,98040.02
2017-07-31T19:02:12.143Z,98008.15
2017-07-31T19:04:40.483Z,98046.12
2017-07-31T19:07:08.818Z,98069.60
2017-07-31T19:09:37.141Z,98061.15
2017-07-31T19:12:05.479Z,98063.47
2017-07-31T19:14:33.847Z,98050.92
2017-07-31T19:17:02.207Z,98048.78
2017-07-31T19:19:30.549Z,98052.40
2017-07-31T19:21:58.954Z,98046.97
2017-07-31T19:24:27.408Z,98042.55
2017-07-31T19:26:55.749Z,98036.91
2017-07-31T19:29:24.100Z,98054.97
